Latest Weather Observations for Falls Creek

IDV60801

Issued at 4:35 pm EST Wednesday 3 September 2014 (issued every 30 minutes, with the page automatically refreshed every 10 minutes)

About weather observations | Map of weather stations | Latest weather observations for VIC | Other Formats
Station Details ID: 083084 Name: FALLS CREEK Lat: -36.87 Lon: 147.28 Height: 1765.0 m
Data from the previous 72 hours. | See also: Recent months at Falls Creek
Date/Time
EST
Temp
°C
App
Temp
°C
Dew
Point
Rel
Hum
%
Delta-T
°C
Wind Press
QNH
hPa
Press
MSL
hPa
Rain
since 9 am
mm
Dir
 
Spd
km/h
Gust
km/h
Spd
kts
Gust
kts
03/04:30pm -0.8 -8.2 -3.8 80 1.1 S 26 33 14 18 1016.5 1016.9 0.0
03/04:00pm -0.8 -8.2 -4.0 79 1.1 S 26 35 14 19 1016.4 1016.8 0.0
03/03:30pm -0.6 -7.2 -3.6 80 1.1 SSE 22 32 12 17 1016.3 1016.6 0.0
03/03:00pm -0.7 -7.6 -2.9 85 0.8 S 24 32 13 17 1016.2 1016.5 0.0
03/02:30pm -0.6 -7.5 -2.8 85 0.8 S 24 33 13 18 1015.9 1016.3 0.0
03/02:00pm -0.8 -8.2 -3.6 81 1.0 SSE 26 35 14 19 1015.7 1016.0 0.0
03/01:30pm -1.3 -9.8 -3.2 87 0.6 S 32 41 17 22 1015.1 1015.4 0.0
03/01:00pm -1.6 -10.7 -3.9 84 0.8 SSE 35 48 19 26 1015.2 1015.5 0.0
03/12:30pm -1.9 -11.8 -3.8 87 0.6 SSE 39 46 21 25 1015.6 1015.9 0.0
03/12:00pm -2.3 -10.8 -3.6 91 0.4 SSE 32 41 17 22 1015.9 1016.3 0.0
03/11:30am -2.5 -11.6 -3.8 91 0.4 SSE 35 46 19 25 1016.2 1016.5 0.0
03/11:00am -2.8 -10.6 -3.8 93 0.2 SSE 28 37 15 20 1016.5 1016.9 0.0
03/10:30am -3.2 -12.8 -4.3 92 0.2 SSE 37 50 20 27 1016.3 1016.6 0.0
03/10:10am -3.3 -13.6 -4.0 95 0.1 SSE 41 59 22 32 1016.2 1016.5 0.0
03/10:00am -3.7 -15.0 -4.5 94 0.1 S 46 56 25 30 1016.1 1016.4 0.0
03/09:30am -3.8 -14.7 -4.2 97 0.0 S 44 59 24 32 1016.1 1016.4 0.0
03/09:01am -3.8 -14.1 -4.5 95 0.1 SSE 41 59 22 32 1016.1 1016.4 0.0
03/09:00am -3.9 -14.6 -4.4 96 0.0 S 43 59 23 32 1016.1 1016.4 19.2
03/08:30am -4.2 -15.5 -4.7 96 0.0 S 46 63 25 34 1015.5 1015.8 19.0
03/08:04am -4.3 -15.2 -4.8 96 0.0 S 44 65 24 35 1015.1 1015.4 19.0
03/08:00am -4.1 -15.0 -4.5 97 0.0 S 44 59 24 32 1015.5 1015.8 19.0
03/07:41am -4.4 -16.1 -4.9 96 0.0 S 48 67 26 36 1015.4 1015.7 19.0
03/07:30am -4.5 -17.9 -5.0 96 0.0 S 57 70 31 38 1014.9 1015.2 19.0
03/07:27am -4.6 -18.8 -5.1 96 0.0 S 61 80 33 43 1015.0 1015.3 19.0
03/07:00am -4.8 -19.4 -5.5 95 0.0 S 63 80 34 43 1013.9 1014.2 19.0
03/06:57am -4.8 -19.0 -5.5 95 0.0 S 61 80 33 43 1014.0 1014.3 19.0
03/06:30am -4.2 -17.6 -4.7 96 0.0 S 57 72 31 39 1014.4 1014.7 19.0
03/06:20am -4.1 -17.5 -4.5 97 0.0 S 57 76 31 41 1014.0 1014.3 19.0
03/06:00am -4.1 -16.5 -4.5 97 0.0 S 52 63 28 34 1014.6 1014.9 19.0
03/05:45am -4.0 -16.4 -4.4 97 0.0 S 52 70 28 38 1014.4 1014.7 19.0
03/05:30am -4.1 -15.4 -4.5 97 0.0 S 46 61 25 33 1014.4 1014.7 19.0
03/05:08am -4.4 -16.1 -4.9 96 0.0 S 48 67 26 36 1014.3 1014.5 19.0
03/05:00am -4.5 -17.0 -5.0 96 0.0 S 52 67 28 36 1014.0 1014.3 19.0
03/04:30am -4.6 -19.2 -5.3 95 0.0 S 63 76 34 41 1013.5 1013.7 19.0
03/04:01am -4.6 -17.9 -5.4 94 0.1 S 56 74 30 40 1013.7 1013.9 19.0
03/04:00am -4.6 -17.9 -5.6 93 0.1 S 56 70 30 38 1013.7 1013.9 19.0
03/03:30am -4.7 -18.0 -5.5 94 0.1 S 56 74 30 40 1013.3 1013.6 19.0
03/03:11am -4.7 -18.0 -5.5 94 0.1 S 56 74 30 40 1013.3 1013.6 19.0
03/03:00am -4.8 -17.3 -5.6 94 0.1 S 52 69 28 37 1013.6 1013.8 19.0
03/02:43am -4.8 -17.3 -5.6 94 0.1 S 52 70 28 38 1013.9 1014.2 19.0
03/02:30am -4.7 -18.0 -5.5 94 0.1 S 56 70 30 38 1013.7 1013.9 19.0
03/02:01am -4.8 -16.6 -5.3 96 0.0 S 48 67 26 36 1014.2 1014.4 19.0
03/02:00am -4.8 -16.9 -5.3 96 0.0 S 50 67 27 36 1014.3 1014.5 19.0
03/01:32am -5.1 -18.1 -6.1 93 0.1 S 54 72 29 39 1014.2 1014.4 19.0
03/01:30am -5.2 -18.6 -6.3 92 0.1 S 56 72 30 39 1014.2 1014.4 19.0
03/01:00am -5.1 -16.5 -5.9 94 0.0 S 46 61 25 33 1014.5 1014.8 19.0
03/12:30am -5.0 -17.2 -5.8 94 0.1 S 50 63 27 34 1014.6 1014.9 19.0
03/12:05am -4.9 -15.4 -6.0 92 0.2 S 41 59 22 32 1014.8 1015.0 19.0
03/12:00am -4.9 -15.8 -5.9 93 0.1 S 43 57 23 31 1015.1 1015.4 19.0
 
Date/Time
EST
Temp
°C
App
Temp
°C
Dew
Point
Rel
Hum
%
Delta-T
°C
Wind Press
QNH
hPa
Press
MSL
hPa
Rain
since 9 am
mm
Dir
 
Spd
km/h
Gust
km/h
Spd
kts
Gust
kts
02/11:49pm -4.9 -16.0 -5.9 93 0.1 S 44 63 24 34 1015.1 1015.4 19.0
02/11:30pm -4.8 -17.0 -5.6 94 0.1 S 50 63 27 34 1014.8 1015.0 19.0
02/11:10pm -4.4 -15.2 -4.9 96 0.0 S 43 61 23 33 1014.8 1015.0 19.0
02/11:00pm -4.6 -16.7 -5.3 95 0.0 S 50 65 27 35 1014.5 1014.8 19.0
02/10:37pm -4.5 -16.2 -5.2 95 0.0 S 48 69 26 37 1014.6 1014.9 19.0
02/10:30pm -4.5 -16.3 -5.5 93 0.1 S 48 65 26 35 1014.5 1014.8 19.0
02/10:00pm -4.2 -16.3 -4.9 95 0.1 S 50 70 27 38 1014.6 1014.9 18.8
02/09:46pm -4.4 -15.4 -5.1 95 0.0 S 44 67 24 36 1014.4 1014.7 18.8
02/09:30pm -4.4 -15.4 -5.1 95 0.0 S 44 59 24 32 1014.5 1014.8 18.8
02/09:24pm -4.4 -14.4 -5.2 94 0.1 S 39 57 21 31 1014.3 1014.5 18.8
02/09:00pm -4.2 -15.0 -5.0 94 0.1 S 43 56 23 30 1013.8 1014.0 18.8
02/08:30pm -4.0 -15.3 -4.4 97 0.0 S 46 61 25 33 1013.2 1013.4 18.6
02/08:00pm -3.7 -14.6 -4.1 97 0.0 S 44 57 24 31 1012.9 1013.1 17.6
02/07:30pm -3.3 -15.6 -3.6 98 0.0 S 52 67 28 36 1012.9 1013.1 16.2
02/07:00pm -3.8 -18.3 -4.2 97 0.0 S 63 82 34 44 1012.0 1012.2 15.6
02/06:30pm -3.0 -17.0 -3.3 98 0.0 S 61 82 33 44 1012.4 1012.6 14.4
02/06:00pm -3.0 -17.0 -3.3 98 0.0 S 61 83 33 45 1012.0 1012.2 13.4
02/05:31pm -3.2 -18.4 -3.5 98 0.0 S 67 85 36 46 1011.4 1011.6 12.6
02/05:30pm -3.2 -18.8 -3.5 98 0.0 S 69 85 37 46 1011.4 1011.6 12.4
02/05:08pm -3.1 -17.9 -3.4 98 0.0 S 65 83 35 45 1010.7 1010.8 11.6
02/05:00pm -3.0 -17.8 -3.3 98 0.0 S 65 82 35 44 1010.8 1010.9 11.4
02/04:30pm -3.2 -18.9 -3.5 98 0.0 S 70 91 38 49 1010.1 1010.2 9.6
02/04:12pm -3.3 -19.1 -3.6 98 0.0 S 70 89 38 48 1009.6 1009.7 8.4
02/04:00pm -3.0 -18.1 -3.3 98 0.0 S 67 82 36 44 1009.8 1009.8 7.6
02/03:36pm -2.8 -16.8 -3.1 98 0.0 S 61 82 33 44 1009.8 1009.8 5.6
02/03:30pm -2.7 -16.7 -3.0 98 0.0 S 61 76 33 41 1010.7 1010.8 5.2
02/03:04pm -2.4 -15.6 -2.7 98 0.0 S 57 76 31 41 1010.5 1010.6 4.2
02/03:00pm -2.4 -16.0 -2.8 97 0.0 S 59 76 32 41 1010.4 1010.5 4.0
02/02:49pm -2.4 -16.0 -2.7 98 0.0 S 59 78 32 42 1010.2 1010.3 3.8
02/02:30pm -2.5 -15.7 -2.8 98 0.0 S 57 70 31 38 1010.2 1010.3 3.4
02/02:00pm -2.6 -15.2 -2.9 98 0.0 S 54 72 29 39 1010.4 1010.5 3.0
02/01:48pm -2.5 -14.7 -2.8 98 0.0 S 52 70 28 38 1010.7 1010.8 2.8
02/01:30pm -2.6 -14.9 -2.9 98 0.0 S 52 69 28 37 1010.5 1010.6 2.4
02/01:03pm -2.1 -11.8 -2.4 98 0.0 S 39 65 21 35 1010.6 1010.7 1.6
02/01:00pm -1.9 -10.8 -2.0 99 -0.1 S 35 50 19 27 1011.3 1011.4 1.4
02/12:44pm -1.7 -10.6 -2.0 98 0.0 S 35 56 19 30 1011.1 1011.2 1.0
02/12:30pm -1.8 -10.7 -2.2 97 0.1 S 35 46 19 25 1011.2 1011.3 1.0
02/12:00pm -2.2 -12.3 -2.6 97 0.0 S 41 61 22 33 1010.7 1010.8 1.0
02/11:58am -2.1 -11.4 -2.4 98 0.0 S 37 56 20 30 1010.7 1010.8 0.8
02/11:30am -2.0 -12.1 -2.7 95 0.2 S 41 54 22 29 1011.3 1011.4 0.6
02/11:10am -2.4 -13.0 -3.1 95 0.1 S 43 63 23 34 1010.8 1010.9 0.6
02/11:00am -2.1 -11.4 -2.2 99 -0.1 S 37 46 20 25 1011.4 1011.6 0.6
02/10:30am -2.2 -12.7 -2.6 97 0.0 S 43 54 23 29 1011.1 1011.2 0.4
02/10:00am -2.1 -10.1 -2.2 99 -0.1 S 30 41 16 22 1011.3 1011.4 0.0
02/09:44am -2.3 -11.3 -2.4 99 -0.1 S 35 54 19 29 1011.2 1011.3 0.0
02/09:30am -2.5 -11.9 -2.8 98 0.0 S 37 50 20 27 1010.7 1010.8 0.0
02/09:00am -2.6 -13.3 -2.9 98 0.0 S 44 57 24 31 1011.1 1011.2 6.2
02/08:30am -2.5 -11.9 -2.6 99 -0.1 S 37 50 20 27 1011.0 1011.1 6.2
02/08:26am -2.6 -11.2 -2.7 99 -0.1 S 33 50 18 27 1011.1 1011.2 6.2
02/08:00am -2.0 -8.5 -2.1 99 -0.1 S 22 32 12 17 1010.7 1010.8 6.2
02/07:30am -2.2 -9.1 -2.3 99 -0.1 S 24 30 13 16 1010.6 1010.7 6.2
02/07:00am -2.3 -12.0 -2.4 99 -0.1 S 39 50 21 27 1009.6 1009.7 6.2
02/06:35am -2.2 -10.6 -2.3 99 -0.1 S 32 50 17 27 1009.3 1009.3 6.2
02/06:30am -2.1 -10.5 -2.2 99 -0.1 S 32 44 17 24 1009.4 1009.5 6.2
02/06:00am -2.2 -11.1 -2.3 99 -0.1 S 35 50 19 27 1009.2 1009.2 6.2
02/05:30am -2.1 -9.7 -2.2 99 -0.1 S 28 44 15 24 1009.0 1009.1 6.2
02/05:00am -2.3 -11.6 -2.4 99 -0.1 S 37 48 20 26 1008.5 1008.5 6.2
02/04:30am -2.0 -9.6 -2.1 99 -0.1 SSE 28 35 15 19 1008.2 1008.2 6.2
02/04:00am -2.1 -10.5 -2.2 99 -0.1 S 32 44 17 24 1008.1 1008.1 6.2
02/03:30am -2.3 -12.8 -2.4 99 -0.1 S 43 54 23 29 1007.9 1007.9 6.2
02/03:00am -2.2 -12.7 -2.5 98 0.0 S 43 54 23 29 1008.0 1008.0 6.2
02/02:30am -2.0 -10.6 -2.6 96 0.1 S 33 41 18 22 1008.5 1008.5 6.2
02/02:00am -2.0 -10.4 -2.1 99 -0.1 S 32 44 17 24 1008.3 1008.3 6.2
02/01:30am -1.5 -9.4 -1.6 99 0.0 S 30 39 16 21 1008.7 1008.7 6.2
02/01:00am -0.9 -6.8 -1.0 99 0.0 S 20 26 11 14 1008.7 1008.7 6.2
02/12:30am -0.7 -6.0 -0.8 99 0.0 SW 17 20 9 11 1008.8 1008.8 6.2
02/12:00am -0.7 -4.5 -0.8 99 0.0 W 9 13 5 7 1008.7 1008.7 6.2
 
Date/Time
EST
Temp
°C
App
Temp
°C
Dew
Point
Rel
Hum
%
Delta-T
°C
Wind Press
QNH
hPa
Press
MSL
hPa
Rain
since 9 am
mm
Dir
 
Spd
km/h
Gust
km/h
Spd
kts
Gust
kts
01/11:30pm -0.6 -6.3 -0.7 99 0.0 W 19 26 10 14 1008.7 1008.7 6.2
01/11:00pm -0.6 -6.3 -0.7 99 0.0 WNW 19 26 10 14 1008.8 1008.8 6.2
01/10:30pm -0.4 -5.3 -0.5 99 0.0 W 15 22 8 12 1009.0 1009.1 6.2
01/10:00pm -0.3 -5.2 -0.4 99 0.0 WNW 15 22 8 12 1009.0 1009.1 6.2
01/09:30pm -0.2 -6.4 -0.3 99 0.0 NW 22 28 12 15 1008.8 1008.8 6.2
01/09:00pm 0.0 -6.6 -0.1 99 0.0 NNW 24 35 13 19 1008.8 1008.8 5.6
01/08:30pm 0.1 -7.2 0.1 100 0.0 NNW 28 41 15 22 1008.8 1008.8 4.8
01/08:00pm 0.6 -10.0 0.6 100 0.0 NNW 46 67 25 36 1007.9 1007.9 3.2
01/07:30pm 0.8 -9.4 0.7 99 0.0 NNW 44 65 24 35 1008.1 1008.1 2.8
01/07:00pm 0.7 -9.4 0.6 99 0.0 NNW 43 65 23 35 1008.1 1008.1 2.4
01/06:30pm 0.5 -9.6 0.4 99 0.0 NNW 43 61 23 33 1008.3 1008.3 1.0
01/06:00pm 0.5 -9.6 0.4 99 0.0 NW 43 70 23 38 1008.3 1008.3 0.2
01/05:30pm 0.8 -8.9 0.4 97 0.2 NW 41 61 22 33 1008.2 1008.2 0.0
01/05:02pm 1.6 -8.6 0.0 89 0.7 NW 43 61 23 33 1008.1 1008.1 0.0
01/05:00pm 1.6 -8.8 -0.2 88 0.7 NW 44 61 24 33 1008.0 1008.0 0.0
01/04:30pm 2.5 -8.2 0.4 86 0.9 NW 46 72 25 39 1008.1 1008.1 0.0
01/04:00pm 2.9 -9.3 0.1 82 1.2 NNW 54 83 29 45 1007.6 1007.6 0.0
01/03:30pm 3.1 -8.3 0.8 85 1.0 NNW 50 70 27 38 1007.1 1007.1 0.0
01/03:00pm 3.2 -10.2 1.3 87 0.8 NNW 61 80 33 43 1006.7 1006.6 0.0
01/02:30pm 3.7 -9.0 0.9 82 1.2 NNW 57 82 31 44 1006.7 1006.6 0.0
01/02:00pm 3.4 -9.1 0.8 83 1.1 NNW 56 80 30 43 1007.1 1007.1 0.0
01/01:30pm 3.7 -9.4 0.7 81 1.3 NNW 59 83 32 45 1007.4 1007.4 0.0
01/01:00pm 3.4 -10.1 0.8 83 1.1 NNW 61 85 33 46 1008.3 1008.3 0.0
01/12:30pm 3.7 -9.8 0.7 81 1.3 NNW 61 83 33 45 1008.9 1009.0 0.0
01/12:00pm 3.6 -8.1 1.0 83 1.1 NNW 52 72 28 39 1010.1 1010.2 0.0
01/11:30am 3.8 -8.9 0.8 81 1.3 NNW 57 80 31 43 1010.5 1010.6 0.0
01/11:00am 3.4 -8.0 0.8 83 1.1 NNW 50 72 27 39 1010.6 1010.7 0.0
01/10:30am 3.5 -6.4 1.4 86 0.9 NNW 43 61 23 33 1011.3 1011.4 0.0
01/10:00am 3.3 -6.6 1.5 88 0.8 NNW 43 63 23 34 1012.4 1012.6 0.0
01/09:36am 3.0 -7.6 1.1 87 0.8 NNW 46 65 25 35 1012.5 1014.6 0.0
01/09:30am 2.9 -8.1 1.0 87 0.8 NNW 48 63 26 34 1012.6 1014.7 0.0
01/09:00am 3.0 -6.7 0.7 85 1.0 N 41 61 22 33 1013.1 1015.2 0.0
01/08:30am 2.0 -6.1 0.7 91 0.6 NNW 33 52 18 28 1013.8 1015.9 0.0
01/08:00am 2.0 -6.0 0.7 91 0.6 NNW 32 43 17 23 1014.3 1016.4 0.0
01/07:30am 1.8 -6.3 0.8 93 0.4 NNW 33 43 18 23 1014.3 1016.4 0.0
01/07:00am 1.8 -6.1 1.1 95 0.3 NNW 32 43 17 23 1014.6 1016.8 0.0
01/06:30am 2.0 -5.6 0.7 91 0.6 NNW 30 43 16 23 1014.9 1017.1 0.0
01/06:00am 2.2 -4.7 0.3 87 0.8 NNW 26 35 14 19 1015.2 1017.4 0.0
01/05:30am 2.1 -4.4 0.0 86 0.9 NNW 24 30 13 16 1015.5 1017.7 0.0
01/05:00am 2.2 -4.4 -0.4 83 1.1 NNW 24 32 13 17 1015.5 1017.7 0.0
01/04:30am 1.9 -4.7 -0.2 86 0.9 NNW 24 30 13 16 1015.4 1017.5 0.0
01/04:00am 1.9 -4.7 -0.2 86 0.9 NNW 24 32 13 17 1015.5 1017.7 0.0
01/03:30am 2.2 -5.5 -0.2 84 1.0 NW 30 39 16 21 1015.7 1017.9 0.0
01/03:00am 2.3 -5.8 -0.3 83 1.1 NNW 32 37 17 20 1015.6 1017.8 0.0
01/02:30am 2.1 -4.9 -0.3 84 1.0 NW 26 33 14 18 1015.7 1017.9 0.0
01/02:00am 2.4 -5.0 -0.4 82 1.2 NW 28 33 15 18 1015.8 1018.0 0.0
01/01:30am 2.6 -4.7 0.0 83 1.1 NW 28 33 15 18 1015.9 1018.2 0.0
01/01:00am 2.8 -4.1 -0.1 81 1.2 NNW 26 33 14 18 1016.1 1018.3 0.0
01/12:30am 2.7 -4.2 0.4 85 1.0 NNW 26 32 14 17 1016.2 1018.4 0.0
01/12:00am 2.4 -4.3 1.5 94 0.4 NNW 26 33 14 18 1016.5 1018.8 0.0
 
Date/Time
EST
Temp
°C
App
Temp
°C
Dew
Point
Rel
Hum
%
Delta-T
°C
Wind Press
QNH
hPa
Press
MSL
hPa
Rain
since 9 am
mm
Dir
 
Spd
km/h
Gust
km/h
Spd
kts
Gust
kts
31/11:30pm 2.3 -4.6 2.3 100 0.0 NNW 28 35 15 19 1016.9 1019.2 0.0
31/11:00pm 2.2 -4.0 2.2 100 0.0 NNW 24 33 13 18 1017.0 1019.3 0.0
31/10:30pm 2.4 -3.8 2.4 100 0.0 NNW 24 32 13 17 1017.3 1019.5 0.0
31/10:00pm 2.4 -3.0 2.4 100 0.0 NNW 20 28 11 15 1017.7 1020.0 0.0
31/09:30pm 2.2 -3.6 2.2 100 0.0 NNW 22 30 12 16 1018.0 1020.3 0.0
31/09:00pm 2.2 -3.2 2.2 100 0.0 NNW 20 28 11 15 1018.2 1020.5 0.0
31/08:30pm 2.4 -2.4 2.4 100 0.0 NNW 17 24 9 13 1018.4 1020.8 0.0
31/08:00pm 2.6 -2.2 2.6 100 0.0 NNW 17 26 9 14 1018.6 1020.9 0.0
31/07:30pm 2.6 -2.2 2.5 99 0.0 NNW 17 24 9 13 1018.7 1021.0 0.0
31/07:00pm 2.8 -2.0 2.7 99 0.0 NNW 17 22 9 12 1018.6 1020.9 0.0
31/06:30pm 2.9 -1.5 2.8 99 0.0 NNW 15 20 8 11 1018.7 1021.0 0.0
31/06:00pm 3.1 -0.9 3.0 99 0.0 NNW 13 19 7 10 1018.4 1020.8 0.0
31/05:30pm 3.5 -0.4 3.2 98 0.1 NNW 13 20 7 11 1018.6 1020.9 0.0
31/05:00pm 4.1 0.1 3.1 93 0.5 NNW 13 19 7 10 1018.6 1020.9 0.0

Other Formats:

Comma delimited format used in spreadsheet applications
http://www.bom.gov.au/fwo/IDV60801/IDV60801.94903.axf

JavaScript Object Notation format (JSON) in row-major order
http://www.bom.gov.au/fwo/IDV60801/IDV60801.94903.json